createdAt,value
2023-04-10T09:28:23.654Z,4.32
2023-04-10T09:33:30.560Z,4.55
2023-04-10T09:38:36.155Z,4.20
2023-04-10T09:43:45.894Z,4.03
2023-04-10T09:48:59.561Z,4.53
2023-04-10T09:54:04.810Z,4.28
2023-04-10T09:59:12.592Z,3.72
2023-04-10T10:04:18.499Z,4.05
2023-04-10T10:09:23.908Z,4.22
2023-04-10T10:14:32.063Z,4.13
2023-04-10T10:19:41.950Z,3.65
2023-04-10T10:24:49.348Z,4.07
2023-04-10T10:29:57.949Z,4.00
2023-04-10T10:35:03.543Z,3.58
2023-04-10T10:40:15.064Z,3.55
2023-04-10T10:45:26.846Z,3.40
2023-04-10T10:50:57.254Z,3.60
2023-04-10T10:56:02.904Z,3.60
2023-04-10T11:01:11.258Z,3.70
2023-04-10T11:06:20.229Z,3.72
2023-04-10T11:11:27.572Z,3.70
2023-04-10T11:16:50.917Z,3.65
2023-04-10T11:22:10.798Z,3.85
2023-04-10T11:27:44.992Z,3.60
2023-04-10T11:32:52.977Z,3.70
2023-04-10T11:38:17.693Z,3.53
2023-04-10T11:43:22.942Z,3.22
2023-04-10T11:48:31.501Z,2.97
2023-04-10T11:53:36.708Z,3.20
2023-04-10T11:58:41.926Z,3.10
2023-04-10T12:03:49.929Z,2.53
2023-04-10T12:08:55.881Z,3.00
2023-04-10T12:14:01.300Z,2.90
2023-04-10T12:19:09.105Z,2.65
2023-04-10T12:24:14.661Z,2.30
2023-04-10T12:29:19.884Z,2.20
2023-04-10T12:34:27.863Z,2.60
2023-04-10T12:39:33.169Z,2.08
2023-04-10T12:44:38.694Z,2.10
2023-04-10T12:49:50.187Z,2.65
2023-04-10T12:54:55.736Z,2.17
2023-04-10T13:00:03.265Z,2.00
2023-04-10T13:05:12.490Z,2.10
2023-04-10T13:10:17.700Z,2.20
2023-04-10T13:15:23.019Z,2.20
2023-04-10T13:20:31.315Z,1.85
2023-04-10T13:25:40.027Z,1.90
2023-04-10T13:30:45.667Z,1.83
2023-04-10T13:35:53.611Z,1.98
2023-04-10T13:40:58.964Z,2.03
2023-04-10T13:46:04.178Z,1.90
2023-04-10T13:51:12.115Z,2.28
2023-04-10T13:56:17.408Z,2.00
2023-04-10T14:01:22.905Z,1.95
2023-04-10T14:06:31.452Z,1.77
2023-04-10T14:11:36.737Z,1.92
2023-04-10T14:16:42.119Z,1.90
2023-04-10T14:21:50.173Z,1.90
2023-04-10T14:26:58.539Z,2.20
2023-04-10T17:04:20.720Z,2.90
2023-04-10T17:09:25.993Z,2.77
2023-04-10T17:14:31.425Z,2.73
2023-04-10T17:19:39.541Z,2.40
2023-04-10T17:24:45.556Z,2.60
2023-04-10T17:29:50.982Z,2.50
2023-04-10T17:34:59.293Z,2.90
2023-04-10T17:40:05.125Z,2.57
2023-04-10T17:45:11.948Z,2.67
2023-04-10T17:50:20.317Z,2.67
2023-04-10T17:55:25.681Z,2.10
2023-04-10T18:00:31.303Z,2.43
2023-04-10T18:05:39.972Z,2.33
2023-04-10T18:10:45.346Z,2.40
2023-04-10T18:15:50.880Z,2.53
2023-04-10T21:21:49.226Z,2.00
2023-04-10T21:26:54.466Z,2.20
2023-04-10T21:31:59.954Z,2.00
2023-04-10T21:37:07.818Z,2.60
2023-04-10T21:42:13.120Z,1.97
2023-04-10T21:47:18.386Z,1.97
2023-04-10T21:52:26.232Z,1.90
2023-04-10T21:57:31.739Z,1.90
2023-04-10T22:02:37.339Z,2.03
2023-04-10T22:07:45.224Z,1.73
2023-04-10T22:12:50.610Z,1.80
2023-04-10T22:17:56.216Z,1.70
2023-04-10T22:23:05.123Z,1.60
2023-04-10T22:28:10.622Z,1.60
